sensor_id;sensor_type;location;lat;lon;timestamp;temperature;humidity
24091;DHT22;12272;52.426;17.100;2022-09-01T00:00:20;23.60;99.40
24091;DHT22;12272;52.426;17.100;2022-09-01T00:05:24;23.60;99.40
24091;DHT22;12272;52.426;17.100;2022-09-01T00:10:28;23.60;99.40
24091;DHT22;12272;52.426;17.100;2022-09-01T00:15:31;23.60;99.40
24091;DHT22;12272;52.426;17.100;2022-09-01T00:20:33;23.50;99.40
24091;DHT22;12272;52.426;17.100;2022-09-01T00:25:36;23.50;99.40
24091;DHT22;12272;52.426;17.100;2022-09-01T00:30:38;23.50;99.50
24091;DHT22;12272;52.426;17.100;2022-09-01T00:35:44;23.50;99.50
24091;DHT22;12272;52.426;17.100;2022-09-01T00:40:46;23.50;99.50
24091;DHT22;12272;52.426;17.100;2022-09-01T00:45:49;23.50;99.50
24091;DHT22;12272;52.426;17.100;2022-09-01T00:50:53;23.40;99.50
24091;DHT22;12272;52.426;17.100;2022-09-01T00:55:56;23.40;99.60
24091;DHT22;12272;52.426;17.100;2022-09-01T01:00:58;23.40;99.80
24091;DHT22;12272;52.426;17.100;2022-09-01T01:06:04;23.40;99.60
24091;DHT22;12272;52.426;17.100;2022-09-01T01:11:13;23.40;99.70
24091;DHT22;12272;52.426;17.100;2022-09-01T01:16:23;23.40;99.70
24091;DHT22;12272;52.426;17.100;2022-09-01T01:21:35;23.40;99.70
24091;DHT22;12272;52.426;17.100;2022-09-01T01:27:00;23.30;99.60
24091;DHT22;12272;52.426;17.100;2022-09-01T01:32:03;23.30;99.70
24091;DHT22;12272;52.426;17.100;2022-09-01T01:37:12;23.30;99.80
24091;DHT22;12272;52.426;17.100;2022-09-01T01:42:15;23.30;99.80
24091;DHT22;12272;52.426;17.100;2022-09-01T01:47:18;23.30;99.80
24091;DHT22;12272;52.426;17.100;2022-09-01T01:52:21;23.30;99.80
24091;DHT22;12272;52.426;17.100;2022-09-01T01:57:28;23.30;99.80
24091;DHT22;12272;52.426;17.100;2022-09-01T02:02:33;23.20;99.80
24091;DHT22;12272;52.426;17.100;2022-09-01T02:07:35;23.20;99.80
24091;DHT22;12272;52.426;17.100;2022-09-01T02:12:39;23.20;99.80
24091;DHT22;12272;52.426;17.100;2022-09-01T02:17:44;23.20;99.70
24091;DHT22;12272;52.426;17.100;2022-09-01T02:22:48;23.20;99.80
24091;DHT22;12272;52.426;17.100;2022-09-01T02:27:53;23.20;99.90
24091;DHT22;12272;52.426;17.100;2022-09-01T02:32:56;23.20;99.90
24091;DHT22;12272;52.426;17.100;2022-09-01T02:38:00;23.10;99.90
24091;DHT22;12272;52.426;17.100;2022-09-01T02:43:03;23.10;99.80
24091;DHT22;12272;52.426;17.100;2022-09-01T02:48:06;23.10;99.90
24091;DHT22;12272;52.426;17.100;2022-09-01T02:53:11;23.10;99.90
24091;DHT22;12272;52.426;17.100;2022-09-01T02:58:17;23.10;99.90
24091;DHT22;12272;52.426;17.100;2022-09-01T03:03:27;23.10;99.90
24091;DHT22;12272;52.426;17.100;2022-09-01T03:08:30;23.10;99.90
24091;DHT22;12272;52.426;17.100;2022-09-01T03:13:37;23.10;99.90
24091;DHT22;12272;52.426;17.100;2022-09-01T03:18:41;23.10;99.90
24091;DHT22;12272;52.426;17.100;2022-09-01T03:23:44;23.00;99.90
24091;DHT22;12272;52.426;17.100;2022-09-01T03:28:49;23.00;99.90
24091;DHT22;12272;52.426;17.100;2022-09-01T03:33:53;23.00;99.90
24091;DHT22;12272;52.426;17.100;2022-09-01T03:39:00;23.00;99.90
24091;DHT22;12272;52.426;17.100;2022-09-01T03:44:05;23.00;99.90
24091;DHT22;12272;52.426;17.100;2022-09-01T03:49:08;23.00;99.90
24091;DHT22;12272;52.426;17.100;2022-09-01T03:54:16;23.00;99.90
24091;DHT22;12272;52.426;17.100;2022-09-01T03:59:19;22.90;99.90
24091;DHT22;12272;52.426;17.100;2022-09-01T04:04:23;22.90;99.90
24091;DHT22;12272;52.426;17.100;2022-09-01T04:09:27;22.90;99.90
24091;DHT22;12272;52.426;17.100;2022-09-01T04:14:29;22.90;99.90
24091;DHT22;12272;52.426;17.100;2022-09-01T04:19:34;22.90;99.90
24091;DHT22;12272;52.426;17.100;2022-09-01T04:24:38;22.90;99.90
24091;DHT22;12272;52.426;17.100;2022-09-01T04:29:46;22.90;99.90
24091;DHT22;12272;52.426;17.100;2022-09-01T04:34:49;22.90;99.90
24091;DHT22;12272;52.426;17.100;2022-09-01T04:39:54;22.90;99.90
24091;DHT22;12272;52.426;17.100;2022-09-01T04:44:59;22.90;99.90
24091;DHT22;12272;52.426;17.100;2022-09-01T04:50:13;22.80;99.90
24091;DHT22;12272;52.426;17.100;2022-09-01T04:55:40;22.80;99.90
24091;DHT22;12272;52.426;17.100;2022-09-01T05:00:49;22.90;99.90
24091;DHT22;12272;52.426;17.100;2022-09-01T05:05:55;22.80;99.90
24091;DHT22;12272;52.426;17.100;2022-09-01T05:11:03;22.80;99.90
24091;DHT22;12272;52.426;17.100;2022-09-01T05:16:18;22.90;99.90
24091;DHT22;12272;52.426;17.100;2022-09-01T05:21:29;22.90;99.90
24091;DHT22;12272;52.426;17.100;2022-09-01T05:26:33;22.90;99.90
24091;DHT22;12272;52.426;17.100;2022-09-01T05:31:36;22.90;99.80
24091;DHT22;12272;52.426;17.100;2022-09-01T05:36:42;23.00;99.80
24091;DHT22;12272;52.426;17.100;2022-09-01T05:41:46;23.00;99.80
24091;DHT22;12272;52.426;17.100;2022-09-01T05:46:51;23.00;99.70
24091;DHT22;12272;52.426;17.100;2022-09-01T05:51:55;23.00;99.70
24091;DHT22;12272;52.426;17.100;2022-09-01T05:57:02;23.00;99.80
24091;DHT22;12272;52.426;17.100;2022-09-01T06:02:26;23.00;99.70
24091;DHT22;12272;52.426;17.100;2022-09-01T06:07:31;23.00;99.70
24091;DHT22;12272;52.426;17.100;2022-09-01T06:12:36;23.00;99.80
24091;DHT22;12272;52.426;17.100;2022-09-01T06:17:39;23.00;99.80
24091;DHT22;12272;52.426;17.100;2022-09-01T06:22:42;23.00;99.80
24091;DHT22;12272;52.426;17.100;2022-09-01T06:27:47;23.00;99.90
24091;DHT22;12272;52.426;17.100;2022-09-01T06:32:54;22.70;96.80
24091;DHT22;12272;52.426;17.100;2022-09-01T06:37:56;22.20;98.20
24091;DHT22;12272;52.426;17.100;2022-09-01T06:43:09;22.50;97.70
24091;DHT22;12272;52.426;17.100;2022-09-01T06:48:16;22.50;97.80
24091;DHT22;12272;52.426;17.100;2022-09-01T06:53:19;21.90;98.90
24091;DHT22;12272;52.426;17.100;2022-09-01T06:58:42;22.10;98.30
24091;DHT22;12272;52.426;17.100;2022-09-01T07:03:51;22.30;98.20
24091;DHT22;12272;52.426;17.100;2022-09-01T07:09:03;22.40;98.10
24091;DHT22;12272;52.426;17.100;2022-09-01T07:14:44;22.60;97.80
24091;DHT22;12272;52.426;17.100;2022-09-01T07:20:09;22.60;96.40
24091;DHT22;12272;52.426;17.100;2022-09-01T07:25:29;22.70;97.50
24091;DHT22;12272;52.426;17.100;2022-09-01T07:31:06;22.80;97.50
24091;DHT22;12272;52.426;17.100;2022-09-01T07:36:32;22.90;97.20
24091;DHT22;12272;52.426;17.100;2022-09-01T07:41:54;21.90;98.50
24091;DHT22;12272;52.426;17.100;2022-09-01T07:47:48;22.90;96.50
24091;DHT22;12272;52.426;17.100;2022-09-01T07:52:59;23.60;94.80
24091;DHT22;12272;52.426;17.100;2022-09-01T07:58:50;24.00;93.70
24091;DHT22;12272;52.426;17.100;2022-09-01T08:04:41;24.20;93.10
24091;DHT22;12272;52.426;17.100;2022-09-01T08:09:44;24.60;92.80
24091;DHT22;12272;52.426;17.100;2022-09-01T08:14:49;24.40;93.10
24091;DHT22;12272;52.426;17.100;2022-09-01T08:20:14;24.70;92.50
24091;DHT22;12272;52.426;17.100;2022-09-01T08:25:29;25.00;92.00
24091;DHT22;12272;52.426;17.100;2022-09-01T08:30:33;25.10;91.60
24091;DHT22;12272;52.426;17.100;2022-09-01T08:35:42;25.10;91.20
24091;DHT22;12272;52.426;17.100;2022-09-01T08:40:53;24.90;91.80
24091;DHT22;12272;52.426;17.100;2022-09-01T08:46:16;25.10;91.60
24091;DHT22;12272;52.426;17.100;2022-09-01T08:51:41;24.90;91.70
24091;DHT22;12272;52.426;17.100;2022-09-01T08:56:44;25.20;90.90
24091;DHT22;12272;52.426;17.100;2022-09-01T09:18:00;25.20;91.30
24091;DHT22;12272;52.426;17.100;2022-09-01T09:23:26;25.20;90.40
24091;DHT22;12272;52.426;17.100;2022-09-01T09:28:30;25.10;91.10
24091;DHT22;12272;52.426;17.100;2022-09-01T09:33:38;25.10;91.00
24091;DHT22;12272;52.426;17.100;2022-09-01T09:39:17;24.90;91.40
24091;DHT22;12272;52.426;17.100;2022-09-01T09:44:25;25.20;90.90
24091;DHT22;12272;52.426;17.100;2022-09-01T09:49:32;25.20;90.90
24091;DHT22;12272;52.426;17.100;2022-09-01T09:55:17;25.30;90.20
24091;DHT22;12272;52.426;17.100;2022-09-01T10:00:31;24.90;90.50
24091;DHT22;12272;52.426;17.100;2022-09-01T10:05:47;25.40;90.00
24091;DHT22;12272;52.426;17.100;2022-09-01T10:10:50;25.60;89.10
24091;DHT22;12272;52.426;17.100;2022-09-01T10:16:04;25.40;88.80
24091;DHT22;12272;52.426;17.100;2022-09-01T10:21:23;25.10;89.70
24091;DHT22;12272;52.426;17.100;2022-09-01T10:26:34;25.40;89.60
24091;DHT22;12272;52.426;17.100;2022-09-01T10:31:40;24.40;63.60
24091;DHT22;12272;52.426;17.100;2022-09-01T10:36:44;25.00;91.40
24091;DHT22;12272;52.426;17.100;2022-09-01T11:08:41;24.80;91.40
24091;DHT22;12272;52.426;17.100;2022-09-01T11:13:54;23.80;60.20
24091;DHT22;12272;52.426;17.100;2022-09-01T11:29:58;23.90;95.00
24091;DHT22;12272;52.426;17.100;2022-09-01T11:35:04;24.40;93.50
24091;DHT22;12272;52.426;17.100;2022-09-01T11:40:08;24.40;92.00
24091;DHT22;12272;52.426;17.100;2022-09-01T11:45:17;24.80;93.20
24091;DHT22;12272;52.426;17.100;2022-09-01T11:50:32;25.00;91.30
24091;DHT22;12272;52.426;17.100;2022-09-01T11:55:38;24.70;78.90
24091;DHT22;12272;52.426;17.100;2022-09-01T12:00:42;24.70;92.90
24091;DHT22;12272;52.426;17.100;2022-09-01T12:05:45;24.90;92.20
24091;DHT22;12272;52.426;17.100;2022-09-01T12:16:35;25.20;91.50
24091;DHT22;12272;52.426;17.100;2022-09-01T12:21:42;24.40;92.20
24091;DHT22;12272;52.426;17.100;2022-09-01T12:26:46;25.10;91.60
24091;DHT22;12272;52.426;17.100;2022-09-01T12:31:51;24.90;92.30
24091;DHT22;12272;52.426;17.100;2022-09-01T12:37:22;24.80;91.10
24091;DHT22;12272;52.426;17.100;2022-09-01T12:42:28;25.00;91.30
24091;DHT22;12272;52.426;17.100;2022-09-01T12:47:44;24.60;92.20
24091;DHT22;12272;52.426;17.100;2022-09-01T12:52:56;25.00;91.30
24091;DHT22;12272;52.426;17.100;2022-09-01T12:58:02;25.00;91.30
24091;DHT22;12272;52.426;17.100;2022-09-01T13:03:14;25.10;91.10
24091;DHT22;12272;52.426;17.100;2022-09-01T13:08:22;25.00;91.00
24091;DHT22;12272;52.426;17.100;2022-09-01T13:13:28;24.70;81.70
24091;DHT22;12272;52.426;17.100;2022-09-01T13:18:31;24.70;91.80
24091;DHT22;12272;52.426;17.100;2022-09-01T13:23:34;24.70;91.80
24091;DHT22;12272;52.426;17.100;2022-09-01T13:28:36;23.80;86.00
24091;DHT22;12272;52.426;17.100;2022-09-01T13:33:42;23.90;93.80
24091;DHT22;12272;52.426;17.100;2022-09-01T13:39:04;24.70;92.10
24091;DHT22;12272;52.426;17.100;2022-09-01T13:44:07;24.70;91.90
24091;DHT22;12272;52.426;17.100;2022-09-01T13:49:11;23.10;84.50
24091;DHT22;12272;52.426;17.100;2022-09-01T13:54:33;24.00;92.10
24091;DHT22;12272;52.426;17.100;2022-09-01T13:59:36;23.60;76.10
24091;DHT22;12272;52.426;17.100;2022-09-01T14:04:39;24.20;82.80
24091;DHT22;12272;52.426;17.100;2022-09-01T14:09:41;24.00;93.70
24091;DHT22;12272;52.426;17.100;2022-09-01T14:14:44;23.70;79.40
24091;DHT22;12272;52.426;17.100;2022-09-01T14:20:10;23.90;90.10
24091;DHT22;12272;52.426;17.100;2022-09-01T14:25:14;24.20;93.40
24091;DHT22;12272;52.426;17.100;2022-09-01T14:30:23;24.20;93.10
24091;DHT22;12272;52.426;17.100;2022-09-01T14:35:32;24.40;87.70
24091;DHT22;12272;52.426;17.100;2022-09-01T14:40:36;24.60;92.00
24091;DHT22;12272;52.426;17.100;2022-09-01T14:45:41;24.50;91.80
24091;DHT22;12272;52.426;17.100;2022-09-01T14:50:49;24.30;73.10
24091;DHT22;12272;52.426;17.100;2022-09-01T14:55:52;23.50;87.80
24091;DHT22;12272;52.426;17.100;2022-09-01T15:00:58;23.50;86.60
24091;DHT22;12272;52.426;17.100;2022-09-01T15:06:21;23.20;90.60
24091;DHT22;12272;52.426;17.100;2022-09-01T15:11:24;23.90;84.30
24091;DHT22;12272;52.426;17.100;2022-09-01T15:16:27;23.90;85.90
24091;DHT22;12272;52.426;17.100;2022-09-01T15:21:30;23.90;86.40
24091;DHT22;12272;52.426;17.100;2022-09-01T15:26:36;23.50;81.90
24091;DHT22;12272;52.426;17.100;2022-09-01T15:31:41;23.20;84.10
24091;DHT22;12272;52.426;17.100;2022-09-01T15:36:43;23.60;88.00
24091;DHT22;12272;52.426;17.100;2022-09-01T15:41:46;23.60;88.30
24091;DHT22;12272;52.426;17.100;2022-09-01T15:46:49;23.20;88.50
24091;DHT22;12272;52.426;17.100;2022-09-01T15:51:54;23.50;88.20
24091;DHT22;12272;52.426;17.100;2022-09-01T15:56:58;23.10;90.30
24091;DHT22;12272;52.426;17.100;2022-09-01T16:02:00;22.20;87.00
24091;DHT22;12272;52.426;17.100;2022-09-01T16:07:03;23.10;91.80
24091;DHT22;12272;52.426;17.100;2022-09-01T16:12:05;23.40;91.30
24091;DHT22;12272;52.426;17.100;2022-09-01T16:17:16;23.40;91.00
24091;DHT22;12272;52.426;17.100;2022-09-01T16:22:27;23.50;91.30
24091;DHT22;12272;52.426;17.100;2022-09-01T16:27:34;23.30;91.80
24091;DHT22;12272;52.426;17.100;2022-09-01T16:32:39;23.40;91.60
24091;DHT22;12272;52.426;17.100;2022-09-01T16:38:07;23.20;92.10
24091;DHT22;12272;52.426;17.100;2022-09-01T16:43:36;23.40;92.10
24091;DHT22;12272;52.426;17.100;2022-09-01T16:59:47;23.30;92.60
24091;DHT22;12272;52.426;17.100;2022-09-01T17:05:24;23.20;92.70
24091;DHT22;12272;52.426;17.100;2022-09-01T17:16:03;23.20;93.30
24091;DHT22;12272;52.426;17.100;2022-09-01T17:21:13;23.10;93.40
24091;DHT22;12272;52.426;17.100;2022-09-01T17:26:26;23.10;93.70
24091;DHT22;12272;52.426;17.100;2022-09-01T17:31:44;23.00;94.00
24091;DHT22;12272;52.426;17.100;2022-09-01T17:37:13;23.00;94.20
24091;DHT22;12272;52.426;17.100;2022-09-01T17:42:28;23.00;94.60
24091;DHT22;12272;52.426;17.100;2022-09-01T18:09:16;16.30;99.90
24091;DHT22;12272;52.426;17.100;2022-09-01T18:14:23;18.50;99.90
24091;DHT22;12272;52.426;17.100;2022-09-01T18:19:35;21.10;99.90
24091;DHT22;12272;52.426;17.100;2022-09-01T18:24:59;15.70;99.90
24091;DHT22;12272;52.426;17.100;2022-09-01T18:30:05;15.20;99.90
24091;DHT22;12272;52.426;17.100;2022-09-01T18:41:15;16.50;99.90
24091;DHT22;12272;52.426;17.100;2022-09-01T18:57:35;24.00;97.50
24091;DHT22;12272;52.426;17.100;2022-09-01T19:13:21;25.00;93.60
24091;DHT22;12272;52.426;17.100;2022-09-01T19:18:44;25.10;93.20
24091;DHT22;12272;52.426;17.100;2022-09-01T19:23:59;25.20;92.90
24091;DHT22;12272;52.426;17.100;2022-09-01T19:29:16;25.20;92.70
24091;DHT22;12272;52.426;17.100;2022-09-01T19:34:23;25.30;92.50
24091;DHT22;12272;52.426;17.100;2022-09-01T19:39:34;25.30;92.40
24091;DHT22;12272;52.426;17.100;2022-09-01T19:55:13;19.30;99.90
24091;DHT22;12272;52.426;17.100;2022-09-01T20:05:29;23.40;99.90
24091;DHT22;12272;52.426;17.100;2022-09-01T20:21:34;24.70;97.10
24091;DHT22;12272;52.426;17.100;2022-09-01T20:27:09;24.70;97.50
24091;DHT22;12272;52.426;17.100;2022-09-01T20:32:18;25.00;96.80
24091;DHT22;12272;52.426;17.100;2022-09-01T20:37:36;25.00;96.60
24091;DHT22;12272;52.426;17.100;2022-09-01T20:48:26;25.00;96.20
24091;DHT22;12272;52.426;17.100;2022-09-01T21:04:10;16.10;99.90
24091;DHT22;12272;52.426;17.100;2022-09-01T21:09:43;22.20;99.90
24091;DHT22;12272;52.426;17.100;2022-09-01T21:25:39;24.40;98.70
24091;DHT22;12272;52.426;17.100;2022-09-01T21:30:43;24.40;98.20
24091;DHT22;12272;52.426;17.100;2022-09-01T21:35:45;24.50;97.90
24091;DHT22;12272;52.426;17.100;2022-09-01T21:40:49;24.50;97.70
24091;DHT22;12272;52.426;17.100;2022-09-01T21:45:52;24.50;97.50
24091;DHT22;12272;52.426;17.100;2022-09-01T21:50:55;24.50;97.40
24091;DHT22;12272;52.426;17.100;2022-09-01T21:55:58;24.50;97.20
24091;DHT22;12272;52.426;17.100;2022-09-01T22:01:01;24.50;97.10
24091;DHT22;12272;52.426;17.100;2022-09-01T22:06:03;24.50;97.30
24091;DHT22;12272;52.426;17.100;2022-09-01T22:11:08;24.40;97.10
24091;DHT22;12272;52.426;17.100;2022-09-01T22:16:16;24.40;97.00
24091;DHT22;12272;52.426;17.100;2022-09-01T22:21:18;24.40;97.00
24091;DHT22;12272;52.426;17.100;2022-09-01T22:26:27;24.40;97.20
24091;DHT22;12272;52.426;17.100;2022-09-01T22:31:31;24.40;97.00
24091;DHT22;12272;52.426;17.100;2022-09-01T22:36:38;24.40;97.00
24091;DHT22;12272;52.426;17.100;2022-09-01T22:41:40;24.30;97.00
24091;DHT22;12272;52.426;17.100;2022-09-01T22:46:43;24.30;97.00
24091;DHT22;12272;52.426;17.100;2022-09-01T22:51:46;24.30;97.00
24091;DHT22;12272;52.426;17.100;2022-09-01T22:56:48;24.20;97.00
24091;DHT22;12272;52.426;17.100;2022-09-01T23:01:51;24.20;97.10
24091;DHT22;12272;52.426;17.100;2022-09-01T23:06:54;24.10;97.10
24091;DHT22;12272;52.426;17.100;2022-09-01T23:11:56;24.10;97.10
24091;DHT22;12272;52.426;17.100;2022-09-01T23:16:59;24.10;97.10
24091;DHT22;12272;52.426;17.100;2022-09-01T23:22:02;24.10;97.20
24091;DHT22;12272;52.426;17.100;2022-09-01T23:27:04;24.00;97.20
24091;DHT22;12272;52.426;17.100;2022-09-01T23:32:07;24.00;97.20
24091;DHT22;12272;52.426;17.100;2022-09-01T23:37:09;24.00;97.30
24091;DHT22;12272;52.426;17.100;2022-09-01T23:42:12;24.00;97.30
24091;DHT22;12272;52.426;17.100;2022-09-01T23:47:14;24.00;97.30
24091;DHT22;12272;52.426;17.100;2022-09-01T23:52:17;24.00;97.30
24091;DHT22;12272;52.426;17.100;2022-09-01T23:57:19;24.00;97.30
